createdAt,value
2022-11-20T00:00:14.864Z,97204.97
2022-11-20T00:02:41.223Z,97227.16
2022-11-20T00:05:08.336Z,97234.66
2022-11-20T00:07:34.782Z,97246.59
2022-11-20T00:10:01.177Z,97259.53
2022-11-20T00:12:27.534Z,97274.25
2022-11-20T00:14:53.901Z,97283.53
2022-11-20T00:17:20.253Z,97281.94
2022-11-20T00:19:46.740Z,97293.97
2022-11-20T00:22:13.089Z,97310.19
2022-11-20T00:24:43.056Z,97326.53
2022-11-20T00:27:09.808Z,97337.59
2022-11-20T00:29:36.158Z,97355.81
2022-11-20T00:32:02.512Z,97352.25
2022-11-20T00:34:28.882Z,97341.72
2022-11-20T00:36:55.234Z,97345.25
2022-11-20T00:39:21.862Z,97353.78
2022-11-20T00:41:48.416Z,97341.81
2022-11-20T00:44:14.751Z,97334.72
2022-11-20T00:46:41.107Z,97345.09
2022-11-20T00:49:07.492Z,97350.06
2022-11-20T00:51:33.865Z,97370.88
2022-11-20T00:54:00.994Z,97358.91
2022-11-20T00:56:27.539Z,97364.03
2022-11-20T00:58:53.888Z,97346.78
2022-11-20T01:01:21.950Z,97360.41
2022-11-20T01:03:49.676Z,97369.91
2022-11-20T01:06:20.864Z,97372.31
2022-11-20T01:08:47.486Z,97392.84
2022-11-20T01:11:18.806Z,97393.66
2022-11-20T01:13:46.105Z,97396.13
2022-11-20T01:16:14.014Z,97397.19
2022-11-20T01:18:41.503Z,97404.97
2022-11-20T01:21:13.131Z,97411.03
2022-11-20T01:23:41.281Z,97408.50
2022-11-20T01:26:10.330Z,97410.03
2022-11-20T01:28:36.784Z,97417.03
2022-11-20T01:31:31.400Z,97411.81
2022-11-20T01:34:01.107Z,97418.69
2022-11-20T01:36:29.118Z,97432.22
2022-11-20T01:38:56.653Z,97435.41
2022-11-20T01:41:41.576Z,97427.53
2022-11-20T01:44:08.287Z,97426.47
2022-11-20T01:46:36.377Z,97406.66
2022-11-20T01:49:10.644Z,97412.53
2022-11-20T01:51:42.282Z,97398.84
2022-11-20T01:54:12.364Z,97398.72
2022-11-20T01:56:40.118Z,97393.50
2022-11-20T01:59:06.899Z,97380.56
2022-11-20T02:01:33.604Z,97366.16
2022-11-20T02:04:00.128Z,97378.31
2022-11-20T02:06:28.499Z,97383.22
2022-11-20T02:08:54.918Z,97376.13
2022-11-20T02:11:21.812Z,97350.41
2022-11-20T02:13:48.762Z,97338.38
2022-11-20T02:16:16.290Z,97324.78
2022-11-20T02:18:43.429Z,97312.72
2022-11-20T02:21:14.766Z,97309.47
2022-11-20T02:24:03.163Z,97325.72
2022-11-20T02:26:31.320Z,97341.84
2022-11-20T02:28:57.996Z,97363.16
2022-11-20T02:31:24.353Z,97370.06
2022-11-20T02:33:56.476Z,97342.50
2022-11-20T02:36:22.850Z,97345.00
2022-11-20T02:38:49.233Z,97359.56
2022-11-20T02:41:15.594Z,97356.97
2022-11-20T02:43:41.939Z,97355.28
2022-11-20T02:46:08.920Z,97352.59
2022-11-20T02:48:35.292Z,97382.94
2022-11-20T02:51:01.763Z,97374.44
2022-11-20T02:53:28.204Z,97365.75
2022-11-20T02:55:54.566Z,97374.34
2022-11-20T02:58:20.918Z,97369.00
2022-11-20T03:00:47.257Z,97360.38
2022-11-20T03:03:13.681Z,97339.75
2022-11-20T03:05:40.033Z,97339.88
2022-11-20T03:08:06.476Z,97333.03
2022-11-20T03:10:32.857Z,97354.53
2022-11-20T03:12:59.230Z,97375.06
2022-11-20T03:15:26.116Z,97369.94
2022-11-20T03:17:56.325Z,97338.19
2022-11-20T03:20:23.165Z,97323.63
2022-11-20T03:22:50.713Z,97314.19
2022-11-20T03:25:17.188Z,97295.22
2022-11-20T03:27:43.563Z,97266.09
2022-11-20T03:30:10.487Z,97267.03
2022-11-20T03:32:36.834Z,97281.69
2022-11-20T03:35:03.451Z,97295.41
2022-11-20T03:37:29.797Z,97303.16
2022-11-20T03:39:56.167Z,97307.28
2022-11-20T03:42:41.302Z,97299.47
2022-11-20T03:45:08.238Z,97316.72
2022-11-20T03:47:34.589Z,97328.72
2022-11-20T03:50:00.956Z,97320.16
2022-11-20T03:52:27.309Z,97292.81
2022-11-20T03:54:54.856Z,97273.28
2022-11-20T03:57:21.208Z,97261.44
2022-11-20T03:59:47.569Z,97278.75
2022-11-20T04:02:13.948Z,97280.44
2022-11-20T04:04:40.347Z,97283.22
2022-11-20T04:07:06.749Z,97262.19
2022-11-20T04:09:33.107Z,97248.53
2022-11-20T04:11:59.468Z,97238.50
2022-11-20T04:14:25.975Z,97230.03
2022-11-20T04:16:52.322Z,97207.91
2022-11-20T04:19:19.241Z,97204.53
2022-11-20T04:21:45.889Z,97190.94
2022-11-20T04:24:12.378Z,97190.22
2022-11-20T04:26:38.777Z,97195.75
2022-11-20T04:29:05.328Z,97186.50
2022-11-20T04:31:33.505Z,97187.34
2022-11-20T04:34:00.827Z,97191.75
2022-11-20T04:36:27.739Z,97183.25
2022-11-20T04:38:57.020Z,97187.69
2022-11-20T04:41:25.410Z,97181.88
2022-11-20T04:43:53.252Z,97173.50
2022-11-20T04:46:20.232Z,97163.13
2022-11-20T04:48:46.813Z,97151.09
2022-11-20T04:51:13.377Z,97129.66
2022-11-20T04:53:39.782Z,97114.31
2022-11-20T04:56:07.745Z,97091.00
2022-11-20T04:58:34.476Z,97073.78
2022-11-20T05:01:08.820Z,97041.09
2022-11-20T05:03:39.723Z,97021.38
2022-11-20T05:06:09.132Z,97020.06
2022-11-20T05:08:35.612Z,97011.09
2022-11-20T05:11:06.335Z,97015.31
2022-11-20T05:13:32.758Z,97002.16
2022-11-20T05:16:23.194Z,97034.84
2022-11-20T05:18:50.623Z,97034.69
2022-11-20T05:21:17.154Z,97045.91
2022-11-20T05:23:43.867Z,97035.41
2022-11-20T05:26:14.534Z,97029.94
2022-11-20T05:28:40.910Z,97034.84
2022-11-20T05:31:14.064Z,97045.78
2022-11-20T05:33:41.268Z,97057.28
2022-11-20T05:36:07.953Z,97058.00
2022-11-20T05:38:34.317Z,97063.06
2022-11-20T05:41:07.812Z,97046.34
2022-11-20T05:43:35.750Z,97045.44
2022-11-20T05:46:02.526Z,97039.97
2022-11-20T05:48:28.957Z,97075.81
2022-11-20T05:50:55.387Z,97111.63
2022-11-20T05:53:21.730Z,97120.22
2022-11-20T05:55:48.096Z,97150.91
2022-11-20T05:58:14.511Z,97170.88
2022-11-20T06:00:40.861Z,97167.16
2022-11-20T06:03:07.223Z,97180.69
2022-11-20T06:05:34.438Z,97188.19
2022-11-20T06:08:01.587Z,97209.59
2022-11-20T06:10:27.974Z,97216.72
2022-11-20T06:12:54.336Z,97203.59
2022-11-20T06:15:20.725Z,97224.41
2022-11-20T06:17:47.100Z,97206.22
2022-11-20T06:20:13.713Z,97212.19
2022-11-20T06:22:40.092Z,97225.34
2022-11-20T06:25:06.672Z,97222.69
2022-11-20T06:27:33.057Z,97208.66
2022-11-20T06:29:59.420Z,97222.16
2022-11-20T06:32:25.805Z,97210.09
2022-11-20T06:34:52.163Z,97216.72
2022-11-20T06:37:18.583Z,97247.16
2022-11-20T06:39:44.936Z,97253.06
2022-11-20T06:42:11.311Z,97241.13
2022-11-20T06:44:37.700Z,97240.09
2022-11-20T06:47:04.428Z,97251.41
2022-11-20T06:49:30.805Z,97237.47
2022-11-20T06:51:57.301Z,97252.66
2022-11-20T06:54:23.888Z,97254.69
2022-11-20T06:56:50.265Z,97265.13
2022-11-20T06:59:16.619Z,97265.03
2022-11-20T07:01:42.998Z,97261.44
2022-11-20T07:04:09.381Z,97266.72
2022-11-20T07:06:35.801Z,97277.28
2022-11-20T07:09:02.563Z,97257.56
2022-11-20T07:11:28.945Z,97251.41
2022-11-20T07:13:55.331Z,97240.19
2022-11-20T07:16:21.697Z,97229.91
2022-11-20T07:18:50.740Z,97221.16
2022-11-20T07:21:17.543Z,97228.25
2022-11-20T07:23:43.915Z,97227.97
2022-11-20T07:26:10.899Z,97235.44
2022-11-20T07:28:37.280Z,97249.00
2022-11-20T07:31:04.079Z,97304.31
2022-11-20T07:33:30.444Z,97298.09
2022-11-20T07:35:56.819Z,97290.19
2022-11-20T07:38:23.199Z,97302.13
2022-11-20T07:40:49.935Z,97324.47
2022-11-20T07:43:16.350Z,97346.78
2022-11-20T07:45:42.721Z,97370.78
2022-11-20T07:48:09.080Z,97368.81
2022-11-20T07:50:35.488Z,97405.06
2022-11-20T07:53:03.678Z,97417.31
2022-11-20T07:55:30.018Z,97421.41
2022-11-20T07:57:57.955Z,97440.91
2022-11-20T08:00:24.454Z,97455.34
2022-11-20T08:02:50.807Z,97489.97
2022-11-20T08:05:17.208Z,97483.78
2022-11-20T08:07:44.202Z,97488.91
2022-11-20T08:10:12.232Z,97503.59
2022-11-20T08:13:06.297Z,97494.69
2022-11-20T08:15:32.853Z,97505.66
2022-11-20T08:18:29.436Z,97525.50
2022-11-20T08:20:49.815Z,97558.03
2022-11-20T08:23:16.203Z,97565.03
2022-11-20T08:25:42.561Z,97550.28
2022-11-20T08:28:18.740Z,97548.50
2022-11-20T08:30:47.098Z,97561.50
2022-11-20T08:33:13.641Z,97572.44
2022-11-20T08:35:41.884Z,97581.09
2022-11-20T08:38:08.332Z,97568.69
2022-11-20T08:40:34.811Z,97577.56
2022-11-20T08:43:01.723Z,97575.78
2022-11-20T08:45:32.512Z,97605.94
2022-11-20T08:48:01.513Z,97599.84
2022-11-20T08:50:27.883Z,97603.19
2022-11-20T08:52:54.265Z,97589.25
2022-11-20T08:55:20.632Z,97597.03
2022-11-20T08:57:50.739Z,97584.66
2022-11-20T09:00:17.678Z,97602.72
2022-11-20T09:02:44.026Z,97621.75
2022-11-20T09:05:10.399Z,97600.00
2022-11-20T09:07:36.797Z,97592.25
2022-11-20T09:10:23.083Z,97571.22
2022-11-20T09:12:50.150Z,97581.13
2022-11-20T09:15:16.985Z,97577.31
2022-11-20T09:17:43.335Z,97578.81
2022-11-20T09:20:10.645Z,97633.94
2022-11-20T09:22:40.616Z,97641.56
2022-11-20T09:25:07.301Z,97650.88
2022-11-20T09:27:33.682Z,97667.97
2022-11-20T09:30:00.034Z,97669.56
2022-11-20T09:32:26.406Z,97641.03
2022-11-20T09:34:52.744Z,97634.56
2022-11-20T09:37:19.131Z,97647.13
2022-11-20T09:39:45.482Z,97664.50
2022-11-20T09:42:24.658Z,97658.50
2022-11-20T09:45:23.364Z,97663.75
2022-11-20T09:47:55.750Z,97634.06
2022-11-20T09:50:38.071Z,97616.63
2022-11-20T09:53:29.226Z,97632.06
2022-11-20T09:55:55.635Z,97650.03
2022-11-20T09:58:31.250Z,97656.91
2022-11-20T10:00:59.483Z,97676.91
2022-11-20T10:03:56.972Z,97665.31
2022-11-20T10:06:35.500Z,97671.16
2022-11-20T10:09:15.693Z,97686.72
2022-11-20T10:12:05.446Z,97718.41
2022-11-20T10:14:56.786Z,97765.63
2022-11-20T10:17:53.359Z,97768.81
2022-11-20T10:20:38.312Z,97750.25
2022-11-20T10:23:25.563Z,97752.56
2022-11-20T10:25:54.923Z,97737.59
2022-11-20T10:28:27.460Z,97746.06
2022-11-20T10:31:00.388Z,97790.00
2022-11-20T10:33:29.041Z,97821.13
2022-11-20T10:36:04.043Z,97801.81
2022-11-20T10:38:41.929Z,97778.50
2022-11-20T10:41:26.608Z,97775.75
2022-11-20T10:44:05.047Z,97797.66
2022-11-20T10:47:22.022Z,97785.53
2022-11-20T10:49:55.119Z,97784.84
2022-11-20T10:52:24.528Z,97754.66
2022-11-20T10:54:55.038Z,97740.41
2022-11-20T10:57:33.175Z,97727.25
2022-11-20T11:00:12.093Z,97730.13
2022-11-20T11:02:47.429Z,97733.34
2022-11-20T11:05:19.352Z,97712.72
2022-11-20T11:07:45.897Z,97698.94
2022-11-20T11:10:42.254Z,97707.16
2022-11-20T11:13:08.821Z,97676.34
2022-11-20T11:15:39.668Z,97668.97
2022-11-20T11:18:06.389Z,97665.91
2022-11-20T11:20:33.347Z,97669.97
2022-11-20T11:23:00.023Z,97701.44
2022-11-20T11:25:29.495Z,97745.13
2022-11-20T11:27:58.332Z,97739.50
2022-11-20T11:30:25.845Z,97716.88
2022-11-20T11:32:52.304Z,97714.84
2022-11-20T11:35:26.466Z,97712.94
2022-11-20T11:37:55.102Z,97733.09
2022-11-20T11:40:24.346Z,97732.56
2022-11-20T11:42:55.191Z,97760.03
2022-11-20T11:45:21.566Z,97801.44
2022-11-20T11:47:49.166Z,97815.25
2022-11-20T11:50:17.202Z,97815.25
2022-11-20T11:53:06.543Z,97801.56
2022-11-20T11:55:44.245Z,97811.13
2022-11-20T11:58:31.997Z,97775.28
2022-11-20T12:01:01.847Z,97790.25
2022-11-20T12:03:30.498Z,97820.94
2022-11-20T12:06:02.576Z,97815.69
2022-11-20T12:08:40.683Z,97784.63
2022-11-20T12:11:17.189Z,97762.84
2022-11-20T12:14:05.622Z,97760.88
2022-11-20T12:16:35.715Z,97754.78
2022-11-20T12:19:02.138Z,97761.50
2022-11-20T12:21:50.232Z,97769.78
2022-11-20T12:24:28.415Z,97787.44
2022-11-20T12:27:32.365Z,97794.28
2022-11-20T12:30:02.288Z,97817.06
2022-11-20T12:32:50.449Z,97817.72
2022-11-20T12:35:46.298Z,97835.31
2022-11-20T12:38:31.024Z,97835.78
2022-11-20T12:40:57.386Z,97827.25
2022-11-20T12:43:50.679Z,97828.16
2022-11-20T12:46:45.453Z,97848.34
2022-11-20T12:49:30.370Z,97843.28
2022-11-20T12:52:25.885Z,97819.63
2022-11-20T12:55:00.000Z,97779.22
2022-11-20T12:57:31.135Z,97769.75
2022-11-20T13:00:19.575Z,97757.13
2022-11-20T13:03:01.225Z,97755.47
2022-11-20T13:05:46.149Z,97751.72
2022-11-20T13:08:56.919Z,97753.41
2022-11-20T13:11:46.705Z,97705.78
2022-11-20T13:14:33.647Z,97705.16
2022-11-20T13:17:24.602Z,97752.75
2022-11-20T13:19:53.265Z,97812.66
2022-11-20T13:22:47.002Z,97821.81
2022-11-20T13:25:42.749Z,97854.47
2022-11-20T13:28:11.860Z,97841.38
2022-11-20T13:30:49.460Z,97822.63
2022-11-20T13:33:34.765Z,97856.44
2022-11-20T13:36:02.016Z,97865.19
2022-11-20T13:38:32.739Z,97864.09
2022-11-20T13:41:24.631Z,97862.44
2022-11-20T13:43:52.492Z,97865.34
2022-11-20T13:46:25.346Z,97863.19
2022-11-20T13:48:52.420Z,97871.81
2022-11-20T13:51:18.993Z,97842.63
2022-11-20T13:54:15.957Z,97828.06
2022-11-20T13:57:00.807Z,97835.66
2022-11-20T13:59:48.432Z,97832.53
2022-11-20T14:02:16.098Z,97811.91
2022-11-20T14:04:45.144Z,97808.75
2022-11-20T14:07:11.519Z,97805.31
2022-11-20T14:09:37.921Z,97803.88
2022-11-20T14:12:05.175Z,97791.34
2022-11-20T14:14:32.171Z,97772.09
2022-11-20T14:17:24.072Z,97772.84
2022-11-20T14:19:51.428Z,97764.31
2022-11-20T14:22:23.634Z,97776.53
2022-11-20T14:25:01.702Z,97757.72
2022-11-20T14:27:28.065Z,97751.75
2022-11-20T14:29:54.502Z,97759.81
2022-11-20T14:32:23.197Z,97759.72
2022-11-20T14:34:50.560Z,97775.28
2022-11-20T14:37:25.131Z,97785.84
2022-11-20T14:39:53.183Z,97787.59
2022-11-20T14:42:27.011Z,97797.25
2022-11-20T14:44:57.637Z,97764.41
2022-11-20T14:47:28.757Z,97751.50
2022-11-20T14:49:55.891Z,97720.34
2022-11-20T14:52:26.786Z,97687.59
2022-11-20T14:55:02.331Z,97680.75
2022-11-20T14:57:28.734Z,97678.19
2022-11-20T15:00:13.545Z,97654.09
2022-11-20T15:02:42.175Z,97627.34
2022-11-20T15:05:08.773Z,97624.97
2022-11-20T15:07:37.066Z,97612.22
2022-11-20T15:10:11.214Z,97586.59
2022-11-20T15:12:50.600Z,97586.69
2022-11-20T15:15:38.519Z,97567.78
2022-11-20T15:18:04.997Z,97538.34
2022-11-20T15:20:33.066Z,97526.38
2022-11-20T15:22:59.557Z,97530.56
2022-11-20T15:25:25.946Z,97529.00
2022-11-20T15:27:58.469Z,97530.66
2022-11-20T15:30:24.950Z,97519.66
2022-11-20T15:32:51.327Z,97497.22
2022-11-20T15:35:17.772Z,97493.84
2022-11-20T15:37:44.166Z,97478.38
2022-11-20T15:40:10.880Z,97463.94
2022-11-20T15:42:37.611Z,97463.16
2022-11-20T15:45:04.429Z,97431.63
2022-11-20T15:47:32.227Z,97420.47
2022-11-20T15:49:58.666Z,97401.88
2022-11-20T15:52:25.067Z,97370.97
2022-11-20T15:54:51.478Z,97360.25
2022-11-20T15:57:17.821Z,97358.59
2022-11-20T15:59:44.290Z,97344.03
2022-11-20T16:02:18.912Z,97331.53
2022-11-20T16:04:45.654Z,97318.75
2022-11-20T16:07:12.048Z,97315.41
2022-11-20T16:09:38.526Z,97313.72
2022-11-20T16:12:05.071Z,97293.84
2022-11-20T16:14:49.726Z,97293.00
2022-11-20T16:17:16.124Z,97282.56
2022-11-20T16:19:42.515Z,97274.75
2022-11-20T16:22:11.541Z,97254.97
2022-11-20T16:24:37.912Z,97260.13
2022-11-20T16:27:04.288Z,97246.50
2022-11-20T16:29:30.676Z,97219.19
2022-11-20T16:31:57.775Z,97192.00
2022-11-20T16:34:24.228Z,97163.00
2022-11-20T16:36:50.654Z,97142.69
2022-11-20T16:39:23.073Z,97157.00
2022-11-20T16:41:50.161Z,97137.66
2022-11-20T16:44:16.733Z,97097.75
2022-11-20T16:46:43.103Z,97076.63
2022-11-20T16:49:13.227Z,97032.38
2022-11-20T16:51:39.809Z,97008.72
2022-11-20T16:54:07.054Z,96983.94
2022-11-20T16:56:33.455Z,96964.47
2022-11-20T16:59:00.182Z,96939.13
2022-11-20T17:01:28.485Z,96904.91
2022-11-20T17:03:59.455Z,96886.25
2022-11-20T17:06:30.386Z,96859.00
2022-11-20T17:08:57.262Z,96839.38
2022-11-20T17:11:23.817Z,96823.25
2022-11-20T17:13:50.377Z,96795.19
2022-11-20T17:16:18.667Z,96792.81
2022-11-20T17:18:45.163Z,96786.00
2022-11-20T17:21:11.752Z,96773.16
2022-11-20T17:23:40.877Z,96767.09
2022-11-20T17:26:08.968Z,96766.97
2022-11-20T17:28:35.793Z,96739.84
2022-11-20T17:31:06.956Z,96726.38
2022-11-20T17:33:34.620Z,96700.66
2022-11-20T17:36:01.048Z,96676.91
2022-11-20T17:38:27.552Z,96674.41
2022-11-20T17:40:53.935Z,96670.22
2022-11-20T17:43:20.369Z,96668.56
2022-11-20T17:45:46.755Z,96672.19
2022-11-20T17:48:13.108Z,96649.91
2022-11-20T17:50:39.458Z,96631.13
2022-11-20T17:53:07.092Z,96616.53
2022-11-20T17:55:55.791Z,96602.03
2022-11-20T17:58:22.394Z,96571.19
2022-11-20T18:00:48.745Z,96554.06
2022-11-20T18:03:15.100Z,96540.47
2022-11-20T18:05:41.473Z,96519.91
2022-11-20T18:08:07.847Z,96515.81
2022-11-20T18:10:35.123Z,96488.66
2022-11-20T18:13:01.523Z,96480.28
2022-11-20T18:15:27.898Z,96475.38
2022-11-20T18:17:54.301Z,96462.44
2022-11-20T18:20:29.305Z,96453.00
2022-11-20T18:22:57.625Z,96447.00
2022-11-20T18:25:24.035Z,96438.50
2022-11-20T18:27:50.413Z,96423.16
2022-11-20T18:30:16.759Z,96431.75
2022-11-20T18:32:43.236Z,96434.34
2022-11-20T18:35:09.871Z,96435.25
2022-11-20T18:37:36.227Z,96423.28
2022-11-20T18:40:02.631Z,96407.88
2022-11-20T18:42:47.552Z,96404.56
2022-11-20T18:45:13.948Z,96392.63
2022-11-20T18:47:40.401Z,96387.47
2022-11-20T18:50:08.127Z,96379.00
2022-11-20T18:52:38.353Z,96368.72
2022-11-20T18:55:07.322Z,96355.88
2022-11-20T18:57:33.766Z,96342.13
2022-11-20T19:00:06.539Z,96333.66
2022-11-20T19:02:41.148Z,96321.56
2022-11-20T19:05:09.955Z,96305.25
2022-11-20T19:07:36.460Z,96296.63
2022-11-20T19:10:04.285Z,96288.00
2022-11-20T19:12:30.987Z,96262.31
2022-11-20T19:14:57.866Z,96253.69
2022-11-20T19:17:24.269Z,96237.47
2022-11-20T19:19:51.069Z,96216.22
2022-11-20T19:22:17.490Z,96185.38
2022-11-20T19:24:43.876Z,96149.09
2022-11-20T19:27:10.278Z,96124.91
2022-11-20T19:29:36.729Z,96104.34
2022-11-20T19:32:04.398Z,96093.94
2022-11-20T19:34:31.016Z,96070.94
2022-11-20T19:36:57.455Z,96036.19
2022-11-20T19:39:24.057Z,96010.66
2022-11-20T19:41:50.617Z,95975.81
2022-11-20T19:44:18.062Z,95939.84
2022-11-20T19:46:44.490Z,95935.16
2022-11-20T19:49:12.536Z,95896.38
2022-11-20T19:51:39.776Z,95870.84
2022-11-20T19:54:06.529Z,95849.00
2022-11-20T19:56:33.056Z,95829.00
2022-11-20T19:58:59.523Z,95833.75
2022-11-20T20:01:28.450Z,95842.22
2022-11-20T20:03:55.530Z,95847.38
2022-11-20T20:06:23.617Z,95873.25
2022-11-20T20:08:59.967Z,95887.75
2022-11-20T20:11:27.229Z,95881.50
2022-11-20T20:13:54.692Z,95889.75
2022-11-20T20:16:22.188Z,95885.47
2022-11-20T20:18:48.606Z,95898.03
2022-11-20T20:21:16.873Z,95897.94
2022-11-20T20:23:43.695Z,95892.72
2022-11-20T20:26:10.226Z,95896.03
2022-11-20T20:28:36.809Z,95892.53
2022-11-20T20:31:10.508Z,95894.19
2022-11-20T20:33:37.578Z,95920.28
2022-11-20T20:36:05.177Z,95919.25
2022-11-20T20:38:31.582Z,95907.97
2022-11-20T20:40:57.982Z,95898.31
2022-11-20T20:43:24.334Z,95904.16
2022-11-20T20:45:50.968Z,95894.63
2022-11-20T20:48:18.321Z,95881.59
2022-11-20T20:50:54.655Z,95876.25
2022-11-20T20:53:21.566Z,95878.00
2022-11-20T20:55:57.922Z,95879.84
2022-11-20T20:58:24.553Z,95876.25
2022-11-20T21:00:51.038Z,95876.06
2022-11-20T21:03:18.317Z,95870.84
2022-11-20T21:05:44.769Z,95870.63
2022-11-20T21:08:24.291Z,95850.06
2022-11-20T21:10:52.102Z,95868.81
2022-11-20T21:13:19.033Z,95855.19
2022-11-20T21:15:50.626Z,95846.25
2022-11-20T21:18:17.911Z,95790.03
2022-11-20T21:21:03.377Z,95726.09
2022-11-20T21:23:29.918Z,95668.94
2022-11-20T21:25:56.391Z,95625.94
2022-11-20T21:28:23.015Z,95597.34
2022-11-20T21:30:49.409Z,95536.22
2022-11-20T21:33:15.868Z,95495.28
2022-11-20T21:35:42.274Z,95424.03
2022-11-20T21:38:08.661Z,95359.31
2022-11-20T21:40:35.044Z,95300.06
2022-11-20T21:43:01.418Z,95261.06
2022-11-20T21:45:27.766Z,95229.91
2022-11-20T21:47:54.823Z,95227.25
2022-11-20T21:50:22.153Z,95187.97
2022-11-20T21:52:48.539Z,95159.47
2022-11-20T21:55:14.954Z,95133.31
2022-11-20T21:57:41.302Z,95119.97
2022-11-20T22:00:08.553Z,95082.47
2022-11-20T22:02:34.900Z,95056.84
2022-11-20T22:05:01.251Z,95025.19
2022-11-20T22:07:27.649Z,95018.63
2022-11-20T22:09:54.052Z,94974.84
2022-11-20T22:12:20.907Z,94947.81
2022-11-20T22:14:47.269Z,94971.75
2022-11-20T22:17:13.985Z,94961.03
2022-11-20T22:19:40.332Z,94942.34
2022-11-20T22:22:06.705Z,94934.34
2022-11-20T22:24:33.077Z,94916.03
2022-11-20T22:26:59.528Z,94918.22
2022-11-20T22:29:25.911Z,94933.44
2022-11-20T22:31:53.000Z,94953.31
2022-11-20T22:34:19.399Z,94960.78
2022-11-20T22:36:45.833Z,94979.72
2022-11-20T22:39:12.215Z,94983.94
2022-11-20T22:41:38.608Z,94977.03
2022-11-20T22:44:06.304Z,94993.28
2022-11-20T22:46:34.451Z,94999.25
2022-11-20T22:49:03.184Z,95027.44
2022-11-20T22:51:31.053Z,95032.38
2022-11-20T22:53:57.566Z,95028.75
2022-11-20T22:56:24.121Z,95037.50
2022-11-20T22:58:51.925Z,95070.44
2022-11-20T23:01:22.909Z,95081.78
2022-11-20T23:03:54.991Z,95084.72
2022-11-20T23:06:21.762Z,95072.56
2022-11-20T23:08:48.341Z,95067.88
2022-11-20T23:11:19.089Z,95041.25
2022-11-20T23:13:46.092Z,95043.72
2022-11-20T23:16:14.436Z,95039.94
2022-11-20T23:18:42.069Z,95031.16
2022-11-20T23:21:10.126Z,95045.44
2022-11-20T23:23:36.549Z,95044.53
2022-11-20T23:26:03.934Z,95062.53
2022-11-20T23:28:30.355Z,95064.63
2022-11-20T23:30:57.333Z,95076.56
2022-11-20T23:33:23.891Z,95083.34
2022-11-20T23:35:50.441Z,95082.31
2022-11-20T23:38:16.865Z,95085.94
2022-11-20T23:40:47.038Z,95096.44
2022-11-20T23:43:16.289Z,95098.31
2022-11-20T23:45:56.568Z,95087.09
2022-11-20T23:48:24.692Z,95064.63
2022-11-20T23:50:51.162Z,95044.97
2022-11-20T23:53:17.677Z,95023.44
2022-11-20T23:55:48.085Z,95010.47
2022-11-20T23:58:14.571Z,95004.28
